Liapootah, Tasmania

2:26 PM EST on August 31, 2014 (GMT +1000)
Launceston | Change Station
CLOSE
Current Station
Airport
Location: Launceston Airport,
Elevation: 561 ft
Nearby Weather Stations

Elev 561 ft 41.55 °S, 147.21 °E | Updated 26 minutes ago

Overcast
Overcast
57 °F
Feels Like 57 °F
N
12
Wind Variable Wind from NW

Today
High -- | Low -- °F
--% Chance of Precip.
Yesterday
High -- | Low -- °F
Precip. -- in
6:39 AM 5:45 PM
Waxing Crescent, 27% visible
Pressure 29.98 in
Visibility 6.2 miles
Clouds Overcast 2600 ft
Overcast 3100 ft
Dew Point 50 °F
Humidity 77%
Rainfall 0.00 in
Snow Depth Not available.
UV 1 out of 12
Pollen Not available.
Air Quality Not available.
Flu Activity Not available.
METAR YMLT 310400Z AUTO 31010KT 9999 // OVC026 OVC031 14/10 Q1015

More Conditions Fewer Conditions

Pressure 29.98 in
Visibility 6.2 miles
Clouds Overcast 2600 ft
Overcast 3100 ft
Dew Point 50 °F
Humidity 77%
Rainfall 0.00 in
Snow Depth Not available.
UV 1 out of 12
Pollen Not available.
Air Quality Not available.
Flu Activity Not available.
METAR YMLT 310400Z AUTO 31010KT 9999 // OVC026 OVC031 14/10 Q1015

More Conditions Fewer Conditions

10-Day Weather Forecast

Almanac

Astronomy

Aug. 31, 2014 Rise Set
Actual Time 6:39 AM EST 5:45 PM EST
Civil Twilight 6:11 AM EST 6:13 PM EST
Nautical Twilight 5:39 AM EST 6:45 PM EST
Astronomical Twilight 5:07 AM EST 7:18 PM EST
Moon 9:13 AM EST 11:17 PM EST
Length of Visible Light 12h 02m
Length of Day
11h 06m
Tomorrow will be 2m 38s longer.
Waxing Crescent, 27% of the Moon is Illuminated
Today
Waxing Crescent
Sep 2
First Quarter
Sep 8
Full
Sep 15
Last Quarter
Sep 24
New

Yesterday's Extremes

Country Highs Country Lows

Community

WunderPhotos

Upload Photos

1,748,776 photos uploaded!

Nearby

Snow Depth

Not available.

Earthquake Activity

City Distance Mag. Time & Date
No recent earthquake activity has been reported nearby.
Minimum magnitude displayed is 2.5.

Coastal Water Temperatures

Place Temperature
No Stations Reporting

Nearby Weather Stations